createdAt,value
2022-08-02T00:00:08.885Z,15.43
2022-08-02T00:02:35.407Z,15.30
2022-08-02T00:05:02.007Z,15.44
2022-08-02T00:07:28.591Z,15.34
2022-08-02T00:09:55.081Z,15.24
2022-08-02T00:12:21.949Z,15.02
2022-08-02T00:14:48.817Z,14.76
2022-08-02T00:17:15.311Z,14.63
2022-08-02T00:19:41.835Z,14.63
2022-08-02T00:22:08.879Z,14.46
2022-08-02T00:24:35.739Z,14.33
2022-08-02T00:27:03.891Z,14.37
2022-08-02T00:29:42.733Z,14.28
2022-08-02T00:32:20.038Z,14.27
2022-08-02T00:34:46.674Z,14.32
2022-08-02T00:37:13.254Z,14.37
2022-08-02T00:39:39.913Z,14.28
2022-08-02T00:42:06.625Z,14.20
2022-08-02T00:44:33.173Z,14.13
2022-08-02T00:46:59.904Z,13.95
2022-08-02T00:49:26.512Z,14.08
2022-08-02T00:51:53.390Z,14.22
2022-08-02T00:54:20.739Z,14.05
2022-08-02T00:56:50.953Z,14.26
2022-08-02T00:59:18.283Z,14.18
2022-08-02T01:01:57.411Z,14.06
2022-08-02T01:04:30.953Z,14.27
2022-08-02T01:07:00.065Z,14.25
2022-08-02T01:09:26.799Z,14.20
2022-08-02T01:11:53.539Z,14.25
2022-08-02T01:14:20.333Z,14.06
2022-08-02T01:16:52.876Z,14.10
2022-08-02T01:19:48.609Z,14.09
2022-08-02T01:23:00.634Z,14.08
2022-08-02T01:26:12.231Z,13.98
2022-08-02T01:28:54.848Z,13.93
2022-08-02T01:31:32.733Z,14.12
2022-08-02T01:34:05.228Z,13.91
2022-08-02T01:36:38.726Z,13.89
2022-08-02T01:39:06.345Z,13.82
2022-08-02T01:41:33.236Z,13.99
2022-08-02T01:44:00.888Z,13.75
2022-08-02T01:46:29.561Z,13.82
2022-08-02T01:48:57.974Z,13.77
2022-08-02T01:51:46.255Z,13.93
2022-08-02T01:54:15.773Z,13.96
2022-08-02T01:56:42.770Z,13.92
2022-08-02T01:59:11.968Z,13.92
2022-08-02T02:01:39.921Z,13.81
2022-08-02T02:04:08.436Z,13.90
2022-08-02T02:06:36.578Z,13.92
2022-08-02T02:09:03.957Z,13.78
2022-08-02T02:12:11.896Z,13.74
2022-08-02T02:14:17.907Z,13.71
2022-08-02T02:16:46.949Z,13.50
2022-08-02T02:19:14.257Z,13.46
2022-08-02T02:21:48.001Z,13.54
2022-08-02T02:24:14.565Z,13.42
2022-08-02T02:26:47.109Z,13.63
2022-08-02T02:29:20.726Z,13.57
2022-08-02T02:31:48.553Z,13.64
2022-08-02T02:34:17.356Z,13.65
2022-08-02T02:36:49.821Z,13.64
2022-08-02T02:39:17.737Z,13.47
2022-08-02T02:41:44.642Z,13.34
2022-08-02T02:44:14.087Z,13.30
2022-08-02T02:46:41.079Z,13.47
2022-08-02T02:49:10.498Z,13.27
2022-08-02T02:51:39.950Z,13.11
2022-08-02T02:54:30.060Z,13.37
2022-08-02T02:56:54.477Z,13.32
2022-08-02T02:59:21.250Z,13.06
2022-08-02T03:01:56.714Z,13.04
2022-08-02T03:04:25.179Z,13.07
2022-08-02T03:06:51.748Z,13.01
2022-08-02T03:09:18.288Z,13.11
2022-08-02T03:11:45.105Z,13.08
2022-08-02T03:14:12.520Z,13.26
2022-08-02T03:16:47.332Z,13.12
2022-08-02T03:19:14.356Z,13.25
2022-08-02T03:21:42.328Z,13.44
2022-08-02T03:24:09.190Z,13.06
2022-08-02T03:26:35.923Z,13.06
2022-08-02T03:29:09.993Z,13.13
2022-08-02T03:31:40.402Z,13.15
2022-08-02T03:34:07.138Z,13.16
2022-08-02T03:36:34.902Z,13.22
2022-08-02T03:39:02.092Z,13.43
2022-08-02T03:41:29.455Z,13.29
2022-08-02T03:43:56.675Z,13.26
2022-08-02T03:46:25.059Z,13.16
2022-08-02T03:48:52.520Z,13.35
2022-08-02T03:51:20.352Z,13.34
2022-08-02T03:53:48.518Z,13.23
2022-08-02T03:56:15.834Z,13.17
2022-08-02T03:58:45.775Z,13.29
2022-08-02T04:01:15.627Z,13.38
2022-08-02T04:03:42.192Z,13.20
2022-08-02T04:06:08.700Z,13.42
2022-08-02T04:08:38.357Z,13.57
2022-08-02T04:11:24.541Z,13.89
2022-08-02T04:13:51.177Z,13.79
2022-08-02T04:16:22.962Z,14.00
2022-08-02T04:19:02.668Z,13.83
2022-08-02T04:21:50.302Z,13.91
2022-08-02T04:24:21.103Z,14.09
2022-08-02T04:26:52.883Z,14.21
2022-08-02T04:29:19.913Z,14.11
2022-08-02T04:31:46.537Z,14.18
2022-08-02T04:34:15.307Z,14.08
2022-08-02T04:36:42.152Z,13.96
2022-08-02T04:39:08.730Z,14.07
2022-08-02T04:41:43.973Z,14.01
2022-08-02T04:44:11.710Z,14.02
2022-08-02T04:46:38.524Z,13.95
2022-08-02T04:49:05.302Z,14.10
2022-08-02T04:51:38.673Z,14.05
2022-08-02T04:54:09.621Z,14.10
2022-08-02T04:56:37.994Z,14.14
2022-08-02T04:59:04.774Z,14.10
2022-08-02T05:01:31.270Z,14.11
2022-08-02T05:03:57.822Z,14.27
2022-08-02T05:06:24.558Z,14.21
2022-08-02T05:08:53.045Z,14.46
2022-08-02T05:11:21.465Z,14.46
2022-08-02T05:13:58.092Z,14.44
2022-08-02T05:16:30.957Z,14.73
2022-08-02T05:18:59.209Z,14.63
2022-08-02T05:21:25.680Z,14.83
2022-08-02T05:23:52.185Z,14.93
2022-08-02T05:26:18.742Z,15.11
2022-08-02T05:28:45.209Z,14.85
2022-08-02T05:31:12.398Z,15.03
2022-08-02T05:33:40.113Z,15.23
2022-08-02T05:36:06.990Z,15.29
2022-08-02T05:38:36.930Z,15.33
2022-08-02T05:41:04.711Z,15.45
2022-08-02T05:43:31.198Z,15.51
2022-08-02T05:45:57.699Z,15.50
2022-08-02T05:48:27.829Z,15.69
2022-08-02T05:51:04.104Z,15.63
2022-08-02T05:53:47.591Z,15.71
2022-08-02T05:56:25.534Z,15.62
2022-08-02T05:59:05.565Z,15.81
2022-08-02T06:01:36.864Z,16.16
2022-08-02T06:04:07.406Z,15.79
2022-08-02T06:06:35.127Z,15.92
2022-08-02T06:09:06.716Z,16.44
2022-08-02T06:12:00.679Z,16.81
2022-08-02T06:14:32.158Z,16.81
2022-08-02T06:16:59.424Z,17.05
2022-08-02T06:19:26.247Z,17.02
2022-08-02T06:22:40.563Z,17.15
2022-08-02T06:24:39.516Z,16.79
2022-08-02T06:27:06.544Z,17.17
2022-08-02T06:29:38.460Z,17.01
2022-08-02T06:32:07.258Z,17.49
2022-08-02T06:34:38.378Z,17.37
2022-08-02T06:37:13.612Z,16.90
2022-08-02T06:39:49.463Z,17.01
2022-08-02T06:42:27.153Z,16.95
2022-08-02T06:44:57.703Z,17.12
2022-08-02T06:47:24.740Z,17.36
2022-08-02T06:49:54.220Z,17.40
2022-08-02T06:52:27.863Z,17.08
2022-08-02T06:54:59.462Z,17.51
2022-08-02T06:57:27.242Z,17.94
2022-08-02T06:59:53.800Z,17.89
2022-08-02T07:02:20.387Z,18.18
2022-08-02T07:04:46.908Z,18.10
2022-08-02T07:07:13.518Z,17.79
2022-08-02T07:09:40.015Z,18.34
2022-08-02T07:12:23.832Z,18.49
2022-08-02T07:14:50.296Z,18.42
2022-08-02T07:17:16.968Z,18.49
2022-08-02T07:19:43.557Z,18.35
2022-08-02T07:22:10.339Z,18.01
2022-08-02T07:24:36.862Z,17.98
2022-08-02T07:27:12.244Z,18.77
2022-08-02T07:29:46.661Z,19.19
2022-08-02T07:32:26.388Z,19.40
2022-08-02T07:34:54.250Z,19.33
2022-08-02T07:37:35.183Z,19.69
2022-08-02T07:40:20.524Z,20.11
2022-08-02T07:42:54.558Z,20.66
2022-08-02T07:45:23.837Z,21.09
2022-08-02T07:47:50.833Z,21.70
2022-08-02T07:50:19.514Z,21.39
2022-08-02T07:52:46.537Z,21.48
2022-08-02T07:55:14.281Z,21.85
2022-08-02T07:57:45.814Z,21.57
2022-08-02T08:00:13.747Z,21.38
2022-08-02T08:02:40.602Z,21.78
2022-08-02T08:05:07.669Z,22.29
2022-08-02T08:07:34.898Z,22.29
2022-08-02T08:10:01.669Z,22.49
2022-08-02T08:12:28.196Z,22.04
2022-08-02T08:14:54.661Z,21.97
2022-08-02T08:17:21.589Z,22.08
2022-08-02T08:19:51.211Z,21.83
2022-08-02T08:22:18.467Z,21.95
2022-08-02T08:24:45.418Z,22.48
2022-08-02T08:27:14.734Z,22.95
2022-08-02T08:29:44.666Z,23.12
2022-08-02T08:32:16.325Z,23.37
2022-08-02T08:34:44.014Z,24.30
2022-08-02T08:37:17.874Z,24.58
2022-08-02T08:39:56.802Z,24.13
2022-08-02T08:42:27.366Z,23.17
2022-08-02T08:44:57.984Z,24.54
2022-08-02T08:47:34.575Z,24.15
2022-08-02T08:50:11.578Z,24.53
2022-08-02T08:53:04.192Z,24.39
2022-08-02T08:55:32.294Z,24.32
2022-08-02T08:58:00.469Z,23.61
2022-08-02T09:00:27.662Z,23.14
2022-08-02T09:02:54.242Z,23.34
2022-08-02T09:05:20.826Z,23.09
2022-08-02T09:07:48.644Z,23.41
2022-08-02T09:10:41.175Z,23.80
2022-08-02T09:13:39.066Z,23.81
2022-08-02T09:16:11.292Z,23.20
2022-08-02T09:18:41.611Z,23.26
2022-08-02T09:21:09.006Z,24.02
2022-08-02T09:23:40.545Z,24.01
2022-08-02T09:26:25.358Z,23.94
2022-08-02T09:28:53.139Z,24.05
2022-08-02T09:31:23.839Z,24.26
2022-08-02T09:33:52.813Z,23.84
2022-08-02T09:36:19.418Z,24.11
2022-08-02T09:39:03.597Z,24.69
2022-08-02T09:41:31.863Z,25.00
2022-08-02T09:44:04.900Z,25.66
2022-08-02T09:46:43.230Z,26.37
2022-08-02T09:49:18.141Z,26.93
2022-08-02T09:51:52.967Z,26.23
2022-08-02T09:54:23.297Z,26.20
2022-08-02T09:56:52.003Z,25.77
2022-08-02T09:59:20.295Z,24.94
2022-08-02T10:01:51.266Z,25.44
2022-08-02T10:04:29.981Z,24.95
2022-08-02T10:06:59.548Z,24.77
2022-08-02T10:09:28.774Z,25.47
2022-08-02T10:11:55.485Z,25.87
2022-08-02T10:14:22.038Z,26.11
2022-08-02T10:16:48.594Z,26.25
2022-08-02T10:19:16.257Z,25.27
2022-08-02T10:22:08.914Z,26.14
2022-08-02T10:24:38.108Z,26.07
2022-08-02T10:27:05.496Z,26.37
2022-08-02T10:29:50.425Z,26.97
2022-08-02T10:32:25.502Z,27.22
2022-08-02T10:34:55.641Z,27.63
2022-08-02T10:37:28.593Z,27.56
2022-08-02T10:39:57.152Z,27.26
2022-08-02T10:42:48.319Z,26.90
2022-08-02T10:45:17.269Z,26.29
2022-08-02T10:48:02.927Z,27.03
2022-08-02T10:51:02.689Z,27.35
2022-08-02T10:53:31.036Z,27.56
2022-08-02T10:56:00.105Z,27.97
2022-08-02T10:58:30.434Z,27.03
2022-08-02T11:00:58.959Z,27.49
2022-08-02T11:03:39.406Z,28.51
2022-08-02T11:06:08.978Z,29.41
2022-08-02T11:08:51.355Z,28.29
2022-08-02T11:11:19.373Z,28.14
2022-08-02T11:14:09.669Z,28.76
2022-08-02T11:16:55.066Z,29.07
2022-08-02T11:19:22.378Z,27.87
2022-08-02T11:22:10.947Z,28.64
2022-08-02T11:24:39.138Z,29.09
2022-08-02T11:27:07.350Z,28.96
2022-08-02T11:29:44.405Z,29.21
2022-08-02T11:32:31.179Z,28.60
2022-08-02T11:34:58.912Z,28.95
2022-08-02T11:37:36.367Z,28.34
2022-08-02T11:40:13.324Z,27.44
2022-08-02T11:42:50.430Z,27.58
2022-08-02T11:45:21.515Z,28.10
2022-08-02T11:47:52.456Z,28.39
2022-08-02T11:50:29.677Z,27.58
2022-08-02T11:52:57.136Z,27.69
2022-08-02T11:55:31.182Z,27.65
2022-08-02T11:58:04.657Z,28.61
2022-08-02T12:00:31.820Z,28.26
2022-08-02T12:02:58.397Z,28.06
2022-08-02T12:05:51.352Z,28.51
2022-08-02T12:08:11.711Z,28.87
2022-08-02T12:10:47.791Z,28.52
2022-08-02T12:13:14.445Z,28.53
2022-08-02T12:15:45.682Z,27.58
2022-08-02T12:18:33.701Z,27.30
2022-08-02T12:21:00.417Z,27.48
2022-08-02T12:23:27.752Z,27.63
2022-08-02T12:26:05.546Z,27.91
2022-08-02T12:28:39.172Z,27.89
2022-08-02T12:31:18.746Z,28.12
2022-08-02T12:33:51.711Z,28.33
2022-08-02T12:36:20.058Z,27.90
2022-08-02T12:38:53.198Z,28.30
2022-08-02T12:41:30.205Z,27.91
2022-08-02T12:43:59.392Z,27.68
2022-08-02T12:46:26.010Z,28.31
2022-08-02T12:49:16.941Z,29.58
2022-08-02T12:51:56.630Z,28.85
2022-08-02T12:54:30.696Z,27.71
2022-08-02T12:56:59.018Z,28.24
2022-08-02T12:59:39.619Z,28.55
2022-08-02T13:02:08.894Z,28.25
2022-08-02T13:04:35.889Z,28.54
2022-08-02T13:07:02.965Z,28.60
2022-08-02T13:09:36.241Z,28.63
2022-08-02T13:12:03.483Z,28.25
2022-08-02T13:14:30.018Z,28.27
2022-08-02T13:16:56.745Z,28.91
2022-08-02T13:19:23.270Z,28.87
2022-08-02T13:22:02.509Z,29.12
2022-08-02T13:24:41.208Z,28.73
2022-08-02T13:27:23.572Z,28.56
2022-08-02T13:29:50.877Z,28.97
2022-08-02T13:32:17.795Z,29.35
2022-08-02T13:34:44.465Z,28.88
2022-08-02T13:37:11.029Z,28.13
2022-08-02T13:39:37.545Z,27.88
2022-08-02T13:42:04.194Z,27.48
2022-08-02T13:44:32.926Z,28.04
2022-08-02T13:46:59.422Z,28.03
2022-08-02T13:49:51.290Z,28.14
2022-08-02T13:52:13.019Z,28.39
2022-08-02T13:54:40.077Z,28.54
2022-08-02T13:57:06.629Z,28.40
2022-08-02T13:59:57.505Z,28.93
2022-08-02T14:02:19.680Z,29.04
2022-08-02T14:04:46.379Z,29.17
2022-08-02T14:07:12.962Z,29.32
2022-08-02T14:09:40.452Z,28.76
2022-08-02T14:12:09.714Z,28.25
2022-08-02T14:14:36.759Z,28.92
2022-08-02T14:17:03.303Z,28.81
2022-08-02T14:19:29.777Z,28.73
2022-08-02T14:22:11.243Z,28.62
2022-08-02T14:24:40.091Z,28.37
2022-08-02T14:27:06.611Z,28.59
2022-08-02T14:29:33.271Z,28.53
2022-08-02T14:31:59.780Z,28.66
2022-08-02T14:34:26.271Z,28.32
2022-08-02T14:36:54.018Z,28.60
2022-08-02T14:39:21.153Z,28.23
2022-08-02T14:41:58.989Z,27.91
2022-08-02T14:44:28.116Z,27.88
2022-08-02T14:46:54.858Z,27.87
2022-08-02T14:49:24.738Z,27.53
2022-08-02T14:51:56.659Z,27.67
2022-08-02T14:54:27.686Z,27.12
2022-08-02T14:57:02.719Z,27.65
2022-08-02T14:59:29.824Z,27.19
2022-08-02T15:01:56.365Z,27.65
2022-08-02T15:04:22.945Z,28.11
2022-08-02T15:06:49.617Z,28.05
2022-08-02T15:09:16.088Z,28.42
2022-08-02T15:11:47.434Z,28.07
2022-08-02T15:14:15.175Z,28.18
2022-08-02T15:16:55.556Z,28.11
2022-08-02T15:19:22.856Z,27.56
2022-08-02T15:21:54.457Z,27.63
2022-08-02T15:24:21.338Z,27.79
2022-08-02T15:26:48.394Z,27.59
2022-08-02T15:29:14.858Z,27.99
2022-08-02T15:31:41.911Z,28.92
2022-08-02T15:34:08.676Z,29.07
2022-08-02T15:36:35.217Z,28.48
2022-08-02T15:39:02.004Z,28.31
2022-08-02T15:41:28.499Z,28.28
2022-08-02T15:44:00.847Z,27.80
2022-08-02T15:46:32.097Z,27.99
2022-08-02T15:48:58.898Z,28.35
2022-08-02T15:51:26.595Z,27.67
2022-08-02T15:53:53.087Z,27.92
2022-08-02T15:56:23.887Z,27.78
2022-08-02T15:58:51.913Z,27.88
2022-08-02T16:01:24.024Z,27.73
2022-08-02T16:03:50.651Z,28.13
2022-08-02T16:06:17.263Z,27.78
2022-08-02T16:08:51.662Z,28.03
2022-08-02T16:11:22.519Z,27.99
2022-08-02T16:13:55.112Z,27.61
2022-08-02T16:16:26.583Z,27.73
2022-08-02T16:18:53.216Z,26.84
2022-08-02T16:21:19.804Z,27.05
2022-08-02T16:23:59.134Z,27.08
2022-08-02T16:26:31.239Z,27.25
2022-08-02T16:28:58.476Z,27.13
2022-08-02T16:31:24.964Z,26.96
2022-08-02T16:33:55.982Z,27.16
2022-08-02T16:36:25.119Z,26.59
2022-08-02T16:38:52.912Z,26.77
2022-08-02T16:41:20.363Z,26.51
2022-08-02T16:43:46.914Z,26.86
2022-08-02T16:46:13.609Z,26.89
2022-08-02T16:48:40.468Z,26.23
2022-08-02T16:51:13.709Z,26.33
2022-08-02T16:54:00.537Z,26.23
2022-08-02T16:56:30.061Z,26.29
2022-08-02T16:58:59.627Z,26.68
2022-08-02T17:01:27.579Z,26.88
2022-08-02T17:03:56.305Z,26.87
2022-08-02T17:09:10.488Z,26.83
2022-08-02T17:11:41.676Z,26.86
2022-08-02T17:14:13.342Z,26.60
2022-08-02T17:16:39.860Z,26.67
2022-08-02T17:19:06.910Z,26.53
2022-08-02T17:21:34.052Z,26.77
2022-08-02T17:24:05.031Z,26.58
2022-08-02T17:26:36.897Z,26.72
2022-08-02T17:29:14.101Z,26.86
2022-08-02T17:32:02.482Z,26.74
2022-08-02T17:34:30.927Z,26.94
2022-08-02T17:36:57.666Z,27.41
2022-08-02T17:39:24.287Z,27.48
2022-08-02T17:42:00.159Z,27.27
2022-08-02T17:44:37.722Z,27.10
2022-08-02T17:47:07.278Z,27.13
2022-08-02T17:49:42.727Z,27.14
2022-08-02T17:52:49.148Z,27.15
2022-08-02T17:54:57.920Z,27.18
2022-08-02T17:57:24.444Z,27.22
2022-08-02T18:00:11.636Z,27.30
2022-08-02T18:02:38.993Z,27.41
2022-08-02T18:05:05.891Z,27.25
2022-08-02T18:07:50.895Z,27.25
2022-08-02T18:10:20.777Z,27.31
2022-08-02T18:12:50.414Z,27.33
2022-08-02T18:15:20.039Z,27.29
2022-08-02T18:17:46.856Z,27.17
2022-08-02T18:20:13.420Z,27.13
2022-08-02T18:22:43.064Z,26.98
2022-08-02T18:25:11.546Z,27.06
2022-08-02T18:27:57.979Z,26.81
2022-08-02T18:30:28.483Z,26.75
2022-08-02T18:33:57.332Z,26.97
2022-08-02T18:35:42.835Z,26.64
2022-08-02T18:38:11.033Z,26.71
2022-08-02T18:40:38.549Z,26.61
2022-08-02T18:43:07.000Z,26.96
2022-08-02T18:46:04.857Z,27.01
2022-08-02T18:48:21.240Z,26.54
2022-08-02T18:50:48.442Z,26.39
2022-08-02T18:53:39.041Z,25.58
2022-08-02T18:56:06.875Z,25.88
2022-08-02T18:58:34.949Z,25.72
2022-08-02T19:01:05.054Z,25.79
2022-08-02T19:03:41.649Z,25.57
2022-08-02T19:06:19.581Z,26.14
2022-08-02T19:08:47.350Z,26.31
2022-08-02T19:11:35.118Z,26.38
2022-08-02T19:14:02.109Z,26.22
2022-08-02T19:16:37.764Z,26.01
2022-08-02T19:19:05.873Z,26.11
2022-08-02T19:22:17.583Z,26.32
2022-08-02T19:24:21.761Z,26.15
2022-08-02T19:26:52.088Z,26.11
2022-08-02T19:29:25.205Z,26.09
2022-08-02T19:32:40.791Z,26.21
2022-08-02T19:34:53.332Z,26.26
2022-08-02T19:37:21.071Z,26.20
2022-08-02T19:39:47.758Z,26.22
2022-08-02T19:42:14.764Z,25.89
2022-08-02T19:44:45.048Z,25.98
2022-08-02T19:47:12.482Z,26.04
2022-08-02T19:49:46.390Z,26.07
2022-08-02T19:52:21.556Z,26.08
2022-08-02T19:54:55.704Z,26.26
2022-08-02T19:57:23.422Z,26.15
2022-08-02T19:59:52.347Z,25.95
2022-08-02T20:02:19.382Z,26.12
2022-08-02T20:04:50.412Z,26.06
2022-08-02T20:07:48.217Z,26.04
2022-08-02T20:10:10.985Z,26.08
2022-08-02T20:12:39.255Z,25.90
2022-08-02T20:15:07.881Z,25.91
2022-08-02T20:17:43.613Z,25.83
2022-08-02T20:20:15.101Z,25.88
2022-08-02T20:23:00.819Z,25.85
2022-08-02T20:25:48.161Z,25.84
2022-08-02T20:28:15.484Z,25.69
2022-08-02T20:30:42.342Z,25.69
2022-08-02T20:33:20.972Z,25.62
2022-08-02T20:35:49.559Z,25.57
2022-08-02T20:38:16.506Z,25.63
2022-08-02T20:40:43.453Z,25.53
2022-08-02T20:43:10.442Z,25.53
2022-08-02T20:45:37.471Z,25.68
2022-08-02T20:48:04.385Z,25.46
2022-08-02T20:50:49.295Z,25.61
2022-08-02T20:53:23.187Z,25.66
2022-08-02T20:55:53.954Z,25.60
2022-08-02T20:58:21.106Z,25.69
2022-08-02T21:00:57.867Z,25.48
2022-08-02T21:03:24.432Z,25.29
2022-08-02T21:06:04.494Z,25.32
2022-08-02T21:08:30.978Z,25.36
2022-08-02T21:10:57.463Z,25.46
2022-08-02T21:13:25.955Z,25.38
2022-08-02T21:15:55.122Z,25.37
2022-08-02T21:18:26.562Z,25.53
2022-08-02T21:21:05.005Z,25.31
2022-08-02T21:23:36.523Z,25.10
2022-08-02T21:26:03.510Z,25.14
2022-08-02T21:28:35.030Z,25.10
2022-08-02T21:31:10.622Z,25.04
2022-08-02T21:33:56.708Z,24.93
2022-08-02T21:36:25.035Z,25.12
2022-08-02T21:38:58.111Z,24.93
2022-08-02T21:41:24.564Z,25.04
2022-08-02T21:44:06.902Z,25.19
2022-08-02T21:46:33.450Z,25.10
2022-08-02T21:49:01.502Z,24.82
2022-08-02T21:51:28.135Z,25.10
2022-08-02T21:54:18.474Z,24.95
2022-08-02T21:56:42.118Z,25.09
2022-08-02T21:59:15.811Z,25.02
2022-08-02T22:01:52.945Z,24.78
2022-08-02T22:04:20.383Z,24.48
2022-08-02T22:06:47.086Z,24.56
2022-08-02T22:09:17.419Z,24.41
2022-08-02T22:12:02.950Z,24.36
2022-08-02T22:14:29.407Z,24.35
2022-08-02T22:16:56.172Z,24.33
2022-08-02T22:19:22.730Z,24.07
2022-08-02T22:21:55.611Z,24.33
2022-08-02T22:24:29.890Z,24.50
2022-08-02T22:26:57.349Z,24.28
2022-08-02T22:29:23.854Z,24.14
2022-08-02T22:31:50.399Z,24.28
2022-08-02T22:37:07.418Z,23.92
2022-08-02T22:39:34.613Z,23.98
2022-08-02T22:42:06.952Z,24.12
2022-08-02T22:44:34.950Z,23.94
2022-08-02T22:47:13.904Z,23.99
2022-08-02T22:49:51.683Z,23.77
2022-08-02T22:52:22.831Z,23.65
2022-08-02T22:54:50.835Z,23.68
2022-08-02T22:57:30.192Z,23.52
2022-08-02T22:58:50.747Z,26.70
2022-08-02T22:59:09.518Z,23.98
2022-08-02T22:59:58.902Z,23.58
2022-08-02T23:02:25.456Z,23.46
2022-08-02T23:04:52.122Z,23.44
2022-08-02T23:07:18.691Z,23.51
2022-08-02T23:09:45.185Z,23.42
2022-08-02T23:12:11.641Z,23.44
2022-08-02T23:14:38.157Z,23.15
2022-08-02T23:17:23.241Z,23.33
2022-08-02T23:19:52.634Z,23.26
2022-08-02T23:22:29.255Z,23.29
2022-08-02T23:24:57.311Z,23.24
2022-08-02T23:27:23.774Z,23.27
2022-08-02T23:29:50.369Z,23.12
2022-08-02T23:32:17.537Z,23.10
2022-08-02T23:34:44.380Z,23.09
2022-08-02T23:37:11.889Z,23.02
2022-08-02T23:39:38.501Z,22.90
2022-08-02T23:42:05.324Z,22.58
2022-08-02T23:44:31.815Z,22.46
2022-08-02T23:47:00.298Z,22.37
2022-08-02T23:49:27.815Z,22.37
2022-08-02T23:52:01.246Z,22.34
2022-08-02T23:54:28.851Z,22.35
2022-08-02T23:56:55.746Z,22.18
2022-08-02T23:59:22.518Z,22.59
